Wetterdaten: Woche 21.02.05 - 27.02.05 (KW8)
Datum Zeit Temperatur Luftfeuchte Luftdruck Niederschlag Wind Richtung Sonne Solar Taupunkt Windchill
21.02.2005 00:00 -2.6 C 97 % 1008.1 hPa 0.0 l/m 0.0 km/h (0 Bft) N 0.00 h 0 W/m -3.0 C -2.6 C
21.02.2005 01:00 -3.0 C 99 % 1007.6 hPa 0.0 l/m 0.0 km/h (0 Bft) N 0.00 h 0 W/m -3.2 C -3.0 C
21.02.2005 02:00 -3.2 C 97 % 1007.6 hPa 0.0 l/m 0.0 km/h (0 Bft) N 0.00 h 0 W/m -3.7 C -3.2 C
21.02.2005 03:00 -3.6 C 90 % 1007.7 hPa 0.0 l/m 0.0 km/h (0 Bft) N 0.00 h 0 W/m -5.0 C -3.6 C
21.02.2005 04:00 -3.6 C 85 % 1006.9 hPa 0.0 l/m 0.0 km/h (0 Bft) N 0.00 h 0 W/m -5.7 C -3.6 C
21.02.2005 05:00 -3.4 C 85 % 1006.6 hPa 0.0 l/m 0.0 km/h (0 Bft) N 0.00 h 0 W/m -5.6 C -3.4 C
21.02.2005 06:00 -3.5 C 84 % 1006.6 hPa 0.0 l/m 0.5 km/h (0 Bft) W-NW 0.00 h 0 W/m -5.8 C -3.6 C
21.02.2005 07:00 -3.6 C 85 % 1006.6 hPa 0.0 l/m 0.0 km/h (0 Bft) N 0.00 h 11 W/m -5.7 C -3.6 C
21.02.2005 08:00 -3.3 C 87 % 1006.6 hPa 0.0 l/m 0.0 km/h (0 Bft) N 0.00 h 49 W/m -5.2 C -3.3 C
21.02.2005 09:00 -2.9 C 85 % 1006.5 hPa 0.0 l/m 0.5 km/h (0 Bft) W-NW 0.00 h 77 W/m -5.1 C -2.9 C
21.02.2005 10:00 -2.0 C 83 % 1006.4 hPa 0.3 l/m 0.3 km/h (0 Bft) W-NW 0.00 h 155 W/m -4.5 C -2.0 C
21.02.2005 11:00 -1.1 C 78 % 1006.3 hPa 0.0 l/m 2.0 km/h (1 Bft) W-NW 0.00 h 255 W/m -4.4 C -1.8 C
21.02.2005 12:00 0.2 C 73 % 1006.1 hPa 0.0 l/m 2.7 km/h (1 Bft) NO 0.23 h 295 W/m -4.1 C -0.4 C
21.02.2005 13:00 1.1 C 68 % 1004.9 hPa 0.0 l/m 2.9 km/h (1 Bft) NO 0.17 h 263 W/m -4.0 C 0.5 C
21.02.2005 14:00 0.5 C 75 % 1005.0 hPa 0.0 l/m 1.3 km/h (1 Bft) O-NO 0.00 h 136 W/m -3.5 C 0.1 C
21.02.2005 15:00 -0.5 C 84 % 1005.1 hPa 0.3 l/m 0.1 km/h (0 Bft) N 0.00 h 85 W/m -2.9 C -0.5 C
21.02.2005 16:00 -0.4 C 82 % 1005.1 hPa 0.0 l/m 0.0 km/h (0 Bft) N 0.00 h 56 W/m -3.1 C -0.4 C
21.02.2005 17:00 -0.7 C 85 % 1005.2 hPa 0.0 l/m 0.0 km/h (0 Bft) N 0.00 h 21 W/m -2.9 C -0.7 C
21.02.2005 18:00 -0.9 C 85 % 1005.2 hPa 0.0 l/m 0.0 km/h (0 Bft) N 0.00 h 0 W/m -3.1 C -0.9 C
21.02.2005 19:00 -1.3 C 86 % 1005.3 hPa 0.0 l/m 0.0 km/h (0 Bft) N 0.00 h 0 W/m -3.4 C -1.3 C
21.02.2005 20:00 -2.0 C 87 % 1005.4 hPa 0.0 l/m 0.0 km/h (0 Bft) N 0.00 h 0 W/m -3.9 C -2.0 C
21.02.2005 21:00 -2.0 C 90 % 1005.4 hPa 0.0 l/m 0.0 km/h (0 Bft) N 0.00 h 0 W/m -3.5 C -2.0 C
21.02.2005 22:00 -1.8 C 90 % 1005.3 hPa 0.0 l/m 0.0 km/h (0 Bft) N 0.00 h 0 W/m -3.2 C -1.8 C
21.02.2005 23:00 -1.8 C 90 % 1004.6 hPa 0.0 l/m 0.0 km/h (0 Bft) N 0.00 h 0 W/m -3.2 C -1.8 C
22.02.2005 00:00 -1.9 C 91 % 1004.3 hPa 0.3 l/m 0.1 km/h (0 Bft) N-NW 0.00 h 0 W/m -3.1 C -1.9 C
22.02.2005 01:00 -1.9 C 93 % 1004.3 hPa 0.3 l/m 0.0 km/h (0 Bft) N 0.00 h 0 W/m -2.9 C -1.9 C
22.02.2005 02:00 -2.1 C 93 % 1004.3 hPa 0.3 l/m 0.0 km/h (0 Bft) N 0.00 h 0 W/m -3.1 C -2.1 C
22.02.2005 03:00 -2.4 C 93 % 1004.2 hPa 0.0 l/m 0.0 km/h (0 Bft) N 0.00 h 0 W/m -3.3 C -2.4 C
22.02.2005 04:00 -2.8 C 94 % 1003.4 hPa 0.3 l/m 0.0 km/h (0 Bft) N 0.00 h 0 W/m -3.6 C -2.8 C
22.02.2005 05:00 -3.1 C 93 % 1004.4 hPa 0.0 l/m 0.0 km/h (0 Bft) N 0.00 h 0 W/m -4.1 C -3.1 C
22.02.2005 06:00 -2.9 C 93 % 1004.4 hPa 0.0 l/m 0.3 km/h (0 Bft) O-SO 0.00 h 0 W/m -3.9 C -2.9 C
22.02.2005 07:00 -3.0 C 88 % 1004.5 hPa 0.0 l/m 0.0 km/h (0 Bft) N 0.00 h 10 W/m -4.7 C -3.0 C
22.02.2005 08:00 -2.7 C 83 % 1004.4 hPa 0.0 l/m 0.0 km/h (0 Bft) N 0.00 h 55 W/m -5.2 C -2.7 C
22.02.2005 09:00 -1.4 C 73 % 1004.2 hPa 0.0 l/m 0.0 km/h (0 Bft) N 0.00 h 150 W/m -5.7 C -1.4 C
22.02.2005 10:00 -0.2 C 69 % 1004.1 hPa 0.0 l/m 0.0 km/h (0 Bft) NO 0.33 h 253 W/m -5.3 C -0.2 C
22.02.2005 11:00 0.3 C 67 % 1004.0 hPa 0.0 l/m 5.9 km/h (2 Bft) O-SO 0.63 h 319 W/m -5.0 C -1.5 C
22.02.2005 12:00 0.6 C 64 % 1003.9 hPa 0.0 l/m 1.8 km/h (1 Bft) O-SO 0.43 h 335 W/m -5.3 C 0.2 C
22.02.2005 13:00 0.9 C 64 % 1003.9 hPa 0.0 l/m 1.5 km/h (1 Bft) O-SO 0.47 h 300 W/m -5.2 C 0.6 C
22.02.2005 14:00 0.2 C 69 % 1004.0 hPa 0.0 l/m 3.9 km/h (1 Bft) N-NW 0.00 h 158 W/m -4.8 C -0.8 C
22.02.2005 15:00 -0.8 C 83 % 1004.1 hPa 0.0 l/m 0.6 km/h (0 Bft) N-NW 0.00 h 96 W/m -3.3 C -0.8 C
22.02.2005 16:00 -1.1 C 84 % 1004.2 hPa 0.0 l/m 2.3 km/h (1 Bft) W-NW 0.00 h 65 W/m -3.4 C -1.8 C
22.02.2005 17:00 -1.4 C 84 % 1004.8 hPa 0.0 l/m 0.6 km/h (0 Bft) W-NW 0.00 h 13 W/m -3.7 C -1.6 C
22.02.2005 18:00 -1.6 C 87 % 1005.3 hPa 0.3 l/m 0.0 km/h (0 Bft) N 0.00 h 0 W/m -3.4 C -1.6 C
22.02.2005 19:00 -1.9 C 89 % 1005.9 hPa 0.0 l/m 2.5 km/h (1 Bft) O-SO 0.00 h 0 W/m -3.4 C -2.6 C
22.02.2005 20:00 -2.5 C 89 % 1006.5 hPa 0.3 l/m 1.9 km/h (1 Bft) O-SO 0.00 h 0 W/m -4.0 C -3.0 C
22.02.2005 21:00 -2.7 C 88 % 1006.5 hPa 0.0 l/m 0.0 km/h (0 Bft) N 0.00 h 0 W/m -4.4 C -2.7 C
22.02.2005 22:00 -2.8 C 86 % 1007.2 hPa 0.0 l/m 0.0 km/h (0 Bft) N 0.00 h 0 W/m -4.9 C -2.8 C
22.02.2005 23:00 -2.9 C 81 % 1007.6 hPa 0.0 l/m 0.0 km/h (0 Bft) N 0.00 h 0 W/m -5.7 C -2.9 C
23.02.2005 00:00 -3.2 C 81 % 1007.6 hPa 0.0 l/m 3.0 km/h (1 Bft) NW 0.00 h 0 W/m -5.9 C -4.1 C
23.02.2005 01:00 -3.4 C 82 % 1007.6 hPa 0.0 l/m 0.9 km/h (0 Bft) W-NW 0.00 h 0 W/m -6.0 C -3.5 C
23.02.2005 02:00 -3.5 C 81 % 1007.5 hPa 0.0 l/m 6.1 km/h (2 Bft) W-NW 0.00 h 0 W/m -6.2 C -5.6 C
23.02.2005 03:00 -3.9 C 83 % 1007.4 hPa 0.0 l/m 2.1 km/h (1 Bft) W-NW 0.00 h 0 W/m -6.3 C -4.3 C
23.02.2005 04:00 -4.0 C 84 % 1007.7 hPa 0.0 l/m 1.2 km/h (1 Bft) W-NW 0.00 h 0 W/m -6.3 C -4.2 C
23.02.2005 05:00 -4.0 C 84 % 1007.7 hPa 0.0 l/m 0.0 km/h (0 Bft) N 0.00 h 0 W/m -6.3 C -4.0 C
23.02.2005 06:00 -3.9 C 82 % 1007.7 hPa 0.0 l/m 0.0 km/h (0 Bft) N 0.00 h 0 W/m -6.4 C -3.9 C
23.02.2005 07:00 -3.9 C 85 % 1008.1 hPa 0.3 l/m 0.0 km/h (0 Bft) N 0.00 h 13 W/m -6.0 C -3.9 C
23.02.2005 08:00 -3.4 C 84 % 1008.7 hPa 0.0 l/m 0.0 km/h (0 Bft) N 0.00 h 54 W/m -5.7 C -3.4 C
23.02.2005 09:00 -2.5 C 80 % 1008.7 hPa 0.0 l/m 0.4 km/h (0 Bft) SO 0.10 h 166 W/m -5.5 C -2.5 C
23.02.2005 10:00 -1.5 C 73 % 1009.4 hPa 0.0 l/m 2.0 km/h (1 Bft) SO 0.27 h 208 W/m -5.6 C -2.0 C
23.02.2005 11:00 -1.5 C 72 % 1009.4 hPa 0.0 l/m 5.1 km/h (1 Bft) W-NW 0.18 h 257 W/m -6.0 C -3.3 C
23.02.2005 12:00 -0.7 C 66 % 1009.3 hPa 0.0 l/m 13.0 km/h (3 Bft) W-NW 0.60 h 358 W/m -6.3 C -4.7 C
23.02.2005 13:00 -0.1 C 63 % 1009.2 hPa 0.0 l/m 15.3 km/h (3 Bft) W-NW 1.00 h 462 W/m -6.2 C -4.5 C
23.02.2005 14:00 0.4 C 60 % 1009.2 hPa 0.0 l/m 15.1 km/h (3 Bft) W 1.00 h 371 W/m -6.5 C -3.9 C
23.02.2005 15:00 0.2 C 58 % 1009.2 hPa 0.0 l/m 13.2 km/h (3 Bft) W-NW 0.62 h 243 W/m -7.0 C -3.8 C
23.02.2005 16:00 -0.1 C 59 % 1009.3 hPa 0.0 l/m 11.9 km/h (2 Bft) W-NW 0.08 h 125 W/m -7.0 C -3.8 C
23.02.2005 17:00 -1.3 C 66 % 1010.5 hPa 0.0 l/m 9.8 km/h (2 Bft) NW 0.00 h 28 W/m -6.8 C -4.4 C
23.02.2005 18:00 -2.2 C 70 % 1010.6 hPa 0.0 l/m 4.5 km/h (1 Bft) W-NW 0.00 h 0 W/m -6.9 C -3.4 C
23.02.2005 19:00 -2.5 C 73 % 1011.6 hPa 0.0 l/m 1.3 km/h (1 Bft) W 0.00 h 0 W/m -6.6 C -2.6 C
23.02.2005 20:00 -2.4 C 73 % 1011.7 hPa 0.0 l/m 4.2 km/h (1 Bft) W-NW 0.00 h 0 W/m -6.6 C -3.9 C
23.02.2005 21:00 -3.0 C 71 % 1011.8 hPa 0.0 l/m 4.7 km/h (1 Bft) W-NW 0.00 h 0 W/m -7.6 C -4.7 C
23.02.2005 22:00 -3.0 C 72 % 1012.8 hPa 0.0 l/m 3.5 km/h (1 Bft) W-NW 0.00 h 0 W/m -7.3 C -4.0 C
23.02.2005 23:00 -3.1 C 72 % 1012.8 hPa 0.0 l/m 1.7 km/h (1 Bft) W-NW 0.00 h 0 W/m -7.5 C -3.4 C
24.02.2005 00:00 -3.8 C 77 % 1012.9 hPa 0.0 l/m 0.5 km/h (0 Bft) W 0.00 h 0 W/m -7.3 C -3.9 C
24.02.2005 01:00 -4.6 C 82 % 1013.0 hPa 0.0 l/m 0.0 km/h (0 Bft) N 0.00 h 0 W/m -7.2 C -4.6 C
24.02.2005 02:00 -4.1 C 81 % 1013.0 hPa 0.0 l/m 0.1 km/h (0 Bft) N 0.00 h 0 W/m -6.8 C -4.1 C
24.02.2005 03:00 -4.3 C 78 % 1013.0 hPa 0.0 l/m 0.1 km/h (0 Bft) N 0.00 h 0 W/m -7.6 C -4.3 C
24.02.2005 04:00 -5.0 C 81 % 1013.1 hPa 0.0 l/m 0.9 km/h (0 Bft) W-NW 0.00 h 0 W/m -7.8 C -5.2 C
24.02.2005 05:00 -5.2 C 82 % 1013.1 hPa 0.0 l/m 0.6 km/h (0 Bft) W-NW 0.00 h 0 W/m -7.9 C -5.5 C
24.02.2005 06:00 -5.1 C 83 % 1013.1 hPa 0.0 l/m 0.1 km/h (0 Bft) S-SW 0.00 h 0 W/m -7.6 C -5.1 C
24.02.2005 07:00 -5.2 C 82 % 1013.3 hPa 0.0 l/m 0.5 km/h (0 Bft) W-NW 0.00 h 14 W/m -7.7 C -5.3 C
24.02.2005 08:00 -4.2 C 83 % 1013.2 hPa 0.0 l/m 0.0 km/h (0 Bft) N 0.00 h 76 W/m -6.7 C -4.2 C
24.02.2005 09:00 -2.5 C 73 % 1013.8 hPa 0.0 l/m 0.4 km/h (0 Bft) W-NW 0.60 h 214 W/m -6.6 C -2.6 C
24.02.2005 10:00 -1.4 C 68 % 1013.6 hPa 0.0 l/m 3.2 km/h (1 Bft) W-NW 1.00 h 363 W/m -6.6 C -2.4 C
24.02.2005 11:00 0.5 C 60 % 1013.2 hPa 0.0 l/m 2.9 km/h (1 Bft) SO 0.90 h 408 W/m -6.3 C -0.2 C
24.02.2005 12:00 2.4 C 51 % 1012.0 hPa 0.0 l/m 2.9 km/h (1 Bft) NW 1.00 h 568 W/m -6.9 C 1.8 C
24.02.2005 13:00 2.5 C 51 % 1012.0 hPa 0.0 l/m 7.0 km/h (2 Bft) NW 1.00 h 533 W/m -6.6 C 0.6 C
24.02.2005 14:00 2.6 C 50 % 1011.2 hPa 0.0 l/m 3.2 km/h (1 Bft) NW 0.80 h 436 W/m -6.9 C 1.9 C
24.02.2005 15:00 1.5 C 53 % 1011.1 hPa 0.0 l/m 4.1 km/h (1 Bft) W-NW 0.43 h 228 W/m -7.1 C 0.5 C
24.02.2005 16:00 1.9 C 49 % 1011.2 hPa 0.0 l/m 3.0 km/h (1 Bft) O-SO 0.30 h 126 W/m -7.7 C 1.2 C
24.02.2005 17:00 -0.1 C 58 % 1012.4 hPa 0.0 l/m 0.0 km/h (0 Bft) N 0.00 h 28 W/m -7.5 C -0.1 C
24.02.2005 18:00 -0.7 C 63 % 1012.5 hPa 0.0 l/m 2.6 km/h (1 Bft) O-SO 0.00 h 0 W/m -7.0 C -1.3 C
24.02.2005 19:00 -0.8 C 63 % 1013.1 hPa 0.0 l/m 0.1 km/h (0 Bft) N 0.00 h 0 W/m -7.0 C -0.8 C
24.02.2005 20:00 -2.2 C 67 % 1013.7 hPa 0.0 l/m 0.7 km/h (0 Bft) NO 0.00 h 0 W/m -7.5 C -2.2 C
24.02.2005 21:00 -3.5 C 71 % 1014.2 hPa 0.0 l/m 0.5 km/h (0 Bft) O-NO 0.00 h 0 W/m -7.9 C -3.5 C
24.02.2005 22:00 -4.3 C 75 % 1015.1 hPa 0.0 l/m 0.6 km/h (0 Bft) O 0.00 h 0 W/m -8.0 C -4.5 C
24.02.2005 23:00 -5.1 C 78 % 1015.2 hPa 0.0 l/m 0.5 km/h (0 Bft) O 0.00 h 0 W/m -8.4 C -5.1 C
25.02.2005 00:00 -6.1 C 83 % 1015.3 hPa 0.0 l/m 0.0 km/h (0 Bft) N 0.00 h 0 W/m -8.5 C -6.1 C
25.02.2005 01:00 -6.4 C 86 % 1015.4 hPa 0.0 l/m 0.0 km/h (0 Bft) N 0.00 h 0 W/m -8.4 C -6.4 C
25.02.2005 02:00 -6.0 C 88 % 1015.3 hPa 0.0 l/m 0.1 km/h (0 Bft) N 0.00 h 0 W/m -7.6 C -6.0 C
25.02.2005 03:00 -5.2 C 87 % 1015.2 hPa 0.0 l/m 0.0 km/h (0 Bft) N 0.00 h 0 W/m -7.0 C -5.2 C
25.02.2005 04:00 -5.2 C 82 % 1015.2 hPa 0.0 l/m 0.7 km/h (0 Bft) NW 0.00 h 0 W/m -7.8 C -5.5 C
25.02.2005 05:00 -6.2 C 82 % 1015.4 hPa 0.0 l/m 0.0 km/h (0 Bft) N 0.00 h 0 W/m -8.8 C -6.2 C
25.02.2005 06:00 -7.6 C 83 % 1015.6 hPa 0.0 l/m 0.0 km/h (0 Bft) N 0.00 h 0 W/m -10.0 C -7.6 C
25.02.2005 07:00 -7.4 C 87 % 1015.5 hPa 0.0 l/m 0.0 km/h (0 Bft) N 0.00 h 16 W/m -9.2 C -7.4 C
25.02.2005 08:00 -6.3 C 87 % 1015.4 hPa 0.0 l/m 0.0 km/h (0 Bft) N 0.00 h 49 W/m -8.1 C -6.3 C
25.02.2005 09:00 -5.0 C 76 % 1015.2 hPa 0.0 l/m 1.9 km/h (1 Bft) W-NW 0.67 h 225 W/m -8.6 C -5.7 C
25.02.2005 10:00 -3.3 C 67 % 1014.9 hPa 0.0 l/m 1.0 km/h (0 Bft) W-NW 0.23 h 263 W/m -8.5 C -3.3 C
25.02.2005 11:00 -1.2 C 61 % 1014.6 hPa 0.0 l/m 2.2 km/h (1 Bft) SO 0.00 h 237 W/m -7.8 C -1.8 C
25.02.2005 12:00 -0.4 C 60 % 1014.5 hPa 0.0 l/m 1.9 km/h (1 Bft) NO 0.00 h 232 W/m -7.2 C -0.9 C
25.02.2005 13:00 -0.0 C 60 % 1014.4 hPa 0.0 l/m 2.4 km/h (1 Bft) O-SO 0.07 h 212 W/m -6.9 C -0.7 C
25.02.2005 14:00 -0.5 C 61 % 1014.5 hPa 0.0 l/m 2.3 km/h (1 Bft) O 0.00 h 111 W/m -7.1 C -1.2 C
25.02.2005 15:00 -0.2 C 60 % 1014.5 hPa 0.0 l/m 1.1 km/h (0 Bft) O-SO 0.00 h 99 W/m -7.0 C -0.4 C
25.02.2005 16:00 -0.5 C 58 % 1014.5 hPa 0.0 l/m 3.9 km/h (1 Bft) O-SO 0.00 h 44 W/m -7.8 C -1.8 C
25.02.2005 17:00 -0.8 C 60 % 1014.5 hPa 0.0 l/m 2.7 km/h (1 Bft) O-SO 0.00 h 13 W/m -7.6 C -1.8 C
25.02.2005 18:00 -1.1 C 61 % 1014.6 hPa 0.0 l/m 1.6 km/h (1 Bft) O-SO 0.00 h 0 W/m -7.7 C -1.6 C
25.02.2005 19:00 -1.2 C 61 % 1014.7 hPa 0.0 l/m 0.3 km/h (0 Bft) N 0.00 h 0 W/m -7.7 C -1.2 C
25.02.2005 20:00 -1.3 C 62 % 1014.7 hPa 0.0 l/m 0.0 km/h (0 Bft) N 0.00 h 0 W/m -7.7 C -1.3 C
25.02.2005 21:00 -1.4 C 64 % 1014.6 hPa 0.0 l/m 0.4 km/h (0 Bft) O 0.00 h 0 W/m -7.3 C -1.5 C
25.02.2005 22:00 -1.4 C 65 % 1014.6 hPa 0.0 l/m 0.0 km/h (0 Bft) N 0.00 h 0 W/m -7.0 C -1.4 C
25.02.2005 23:00 -1.5 C 64 % 1014.6 hPa 0.0 l/m 0.0 km/h (0 Bft) N 0.00 h 0 W/m -7.3 C -1.5 C
26.02.2005 00:00 -1.6 C 65 % 1014.7 hPa 0.0 l/m 0.0 km/h (0 Bft) N 0.00 h 0 W/m -7.3 C -1.6 C
26.02.2005 01:00 -1.7 C 64 % 1014.7 hPa 0.0 l/m 0.8 km/h (0 Bft) O-NO 0.00 h 0 W/m -7.5 C -1.8 C
26.02.2005 02:00 -1.8 C 62 % 1014.3 hPa 0.0 l/m 0.9 km/h (0 Bft) NO 0.00 h 0 W/m -8.1 C -1.9 C
26.02.2005 03:00 -2.0 C 62 % 1013.7 hPa 0.0 l/m 3.1 km/h (1 Bft) O-NO 0.00 h 0 W/m -8.3 C -2.9 C
26.02.2005 04:00 -2.4 C 63 % 1013.7 hPa 0.0 l/m 1.4 km/h (1 Bft) NO 0.00 h 0 W/m -8.5 C -2.8 C
26.02.2005 05:00 -2.8 C 62 % 1013.8 hPa 0.0 l/m 1.1 km/h (1 Bft) O-NO 0.00 h 0 W/m -9.1 C -3.0 C
26.02.2005 06:00 -3.0 C 61 % 1013.8 hPa 0.0 l/m 0.3 km/h (0 Bft) NO 0.00 h 0 W/m -9.4 C -3.0 C
26.02.2005 07:00 -3.2 C 61 % 1013.9 hPa 0.0 l/m 2.5 km/h (1 Bft) N-NO 0.00 h 11 W/m -9.6 C -3.8 C
26.02.2005 08:00 -3.1 C 62 % 1013.8 hPa 0.0 l/m 0.7 km/h (0 Bft) N-NO 0.00 h 39 W/m -9.2 C -3.1 C
26.02.2005 09:00 -2.7 C 61 % 1013.8 hPa 0.0 l/m 1.2 km/h (1 Bft) N-NO 0.00 h 73 W/m -9.3 C -2.9 C
26.02.2005 10:00 -2.1 C 59 % 1013.7 hPa 0.0 l/m 2.5 km/h (1 Bft) O-SO 0.00 h 136 W/m -9.1 C -2.7 C
26.02.2005 11:00 -0.1 C 54 % 1013.2 hPa 0.0 l/m 5.9 km/h (2 Bft) O-SO 0.63 h 454 W/m -8.3 C -1.9 C
26.02.2005 12:00 0.3 C 50 % 1012.3 hPa 0.0 l/m 3.3 km/h (1 Bft) O-SO 0.13 h 272 W/m -8.9 C -0.5 C
26.02.2005 13:00 1.2 C 48 % 1012.2 hPa 0.0 l/m 14.1 km/h (3 Bft) O-SO 0.58 h 401 W/m -8.5 C -2.4 C
26.02.2005 14:00 1.3 C 50 % 1011.2 hPa 0.0 l/m 11.6 km/h (2 Bft) O-SO 0.40 h 308 W/m -8.1 C -1.6 C
26.02.2005 15:00 1.6 C 49 % 1011.1 hPa 0.0 l/m 12.9 km/h (3 Bft) O-SO 0.30 h 224 W/m -7.9 C -1.9 C
26.02.2005 16:00 1.0 C 50 % 1011.2 hPa 0.0 l/m 10.5 km/h (2 Bft) O-SO 0.00 h 85 W/m -8.4 C -1.9 C
26.02.2005 17:00 -0.1 C 54 % 1011.3 hPa 0.0 l/m 11.8 km/h (2 Bft) O-SO 0.00 h 20 W/m -8.2 C -3.9 C
26.02.2005 18:00 -0.6 C 55 % 1011.4 hPa 0.0 l/m 6.3 km/h (2 Bft) O-SO 0.00 h 4 W/m -8.5 C -2.4 C
26.02.2005 19:00 -1.0 C 56 % 1011.6 hPa 0.0 l/m 4.6 km/h (1 Bft) O-SO 0.00 h 0 W/m -8.7 C -2.3 C
26.02.2005 20:00 -1.3 C 57 % 1011.6 hPa 0.0 l/m 2.0 km/h (1 Bft) O-SO 0.00 h 0 W/m -8.8 C -2.0 C
26.02.2005 21:00 -1.5 C 58 % 1012.5 hPa 0.0 l/m 0.4 km/h (0 Bft) O-SO 0.00 h 0 W/m -8.6 C -1.5 C
26.02.2005 22:00 -1.8 C 67 % 1011.8 hPa 0.0 l/m 7.3 km/h (2 Bft) O-SO 0.00 h 0 W/m -7.0 C -4.4 C
26.02.2005 23:00 -2.6 C 73 % 1011.7 hPa 0.0 l/m 5.0 km/h (1 Bft) SO 0.00 h 0 W/m -6.8 C -4.2 C
27.02.2005 00:00 -4.4 C 79 % 1012.0 hPa 0.0 l/m 0.8 km/h (0 Bft) SO 0.00 h 0 W/m -7.5 C -4.7 C
27.02.2005 01:00 -4.9 C 82 % 1011.4 hPa 0.0 l/m 0.3 km/h (0 Bft) SO 0.00 h 0 W/m -7.5 C -4.9 C
27.02.2005 02:00 -4.9 C 83 % 1011.0 hPa 0.0 l/m 0.0 km/h (0 Bft) N 0.00 h 0 W/m -7.3 C -4.9 C
27.02.2005 03:00 -4.5 C 83 % 1010.9 hPa 0.0 l/m 0.3 km/h (0 Bft) SO 0.00 h 0 W/m -7.0 C -4.5 C
27.02.2005 04:00 -4.7 C 82 % 1010.4 hPa 0.0 l/m 0.4 km/h (0 Bft) SO 0.00 h 0 W/m -7.2 C -4.7 C
27.02.2005 05:00 -4.6 C 82 % 1009.9 hPa 0.0 l/m 0.0 km/h (0 Bft) N 0.00 h 0 W/m -7.2 C -4.6 C
27.02.2005 06:00 -4.5 C 82 % 1009.9 hPa 0.0 l/m 0.0 km/h (0 Bft) N 0.00 h 0 W/m -7.1 C -4.5 C
27.02.2005 07:00 -4.3 C 84 % 1009.9 hPa 0.0 l/m 0.0 km/h (0 Bft) N 0.00 h 16 W/m -6.6 C -4.3 C
27.02.2005 08:00 -3.8 C 84 % 1010.8 hPa 0.3 l/m 0.0 km/h (0 Bft) N 0.00 h 65 W/m -6.0 C -3.8 C
27.02.2005 09:00 -3.0 C 83 % 1010.7 hPa 0.6 l/m 0.0 km/h (0 Bft) N 0.00 h 91 W/m -5.4 C -3.0 C
27.02.2005 10:00 -2.6 C 81 % 1010.6 hPa 0.6 l/m 0.4 km/h (0 Bft) N-NW 0.00 h 175 W/m -5.5 C -2.6 C
27.02.2005 11:00 -1.9 C 62 % 1010.7 hPa 0.3 l/m 9.0 km/h (2 Bft) N-NO 0.70 h 396 W/m -8.3 C -4.7 C
27.02.2005 12:00 -2.7 C 66 % 1011.7 hPa 0.0 l/m 8.2 km/h (2 Bft) N-NO 0.07 h 289 W/m -8.2 C -5.2 C
27.02.2005 13:00 -2.9 C 65 % 1011.7 hPa 0.0 l/m 9.4 km/h (2 Bft) N 0.23 h 284 W/m -8.5 C -6.2 C
27.02.2005 14:00 -3.1 C 60 % 1012.3 hPa 0.0 l/m 11.2 km/h (2 Bft) N-NO 0.30 h 267 W/m -9.7 C -7.1 C
27.02.2005 15:00 -4.0 C 61 % 1012.9 hPa 0.0 l/m 8.5 km/h (2 Bft) N-NO 0.00 h 145 W/m -10.4 C -7.0 C
27.02.2005 16:00 -4.8 C 60 % 1013.8 hPa 0.0 l/m 17.0 km/h (3 Bft) N-NO 0.00 h 97 W/m -11.3 C -10.6 C
27.02.2005 17:00 -5.6 C 62 % 1015.2 hPa 0.0 l/m 11.6 km/h (2 Bft) N-NO 0.00 h 32 W/m -11.6 C -10.0 C
27.02.2005 18:00 -5.9 C 65 % 1016.3 hPa 0.0 l/m 1.4 km/h (1 Bft) NO 0.00 h 5 W/m -11.4 C -6.2 C
27.02.2005 19:00 -6.3 C 65 % 1017.3 hPa 0.0 l/m 4.7 km/h (1 Bft) N-NO 0.00 h 0 W/m -11.7 C -8.1 C
27.02.2005 20:00 -6.6 C 65 % 1017.5 hPa 0.0 l/m 4.6 km/h (1 Bft) N-NO 0.00 h 0 W/m -12.0 C -8.1 C
27.02.2005 21:00 -6.8 C 62 % 1018.5 hPa 0.0 l/m 2.2 km/h (1 Bft) NO 0.00 h 0 W/m -12.8 C -7.4 C
27.02.2005 22:00 -6.8 C 57 % 1018.6 hPa 0.0 l/m 3.7 km/h (1 Bft) O-NO 0.00 h 0 W/m -13.7 C -8.1 C
27.02.2005 23:00 -7.4 C 57 % 1019.3 hPa 0.0 l/m 2.4 km/h (1 Bft) N-NO 0.00 h 0 W/m -14.5 C -8.2 C
Min-Datum _ 25.02.05 26.02.05 22.02.05 - 21.02.05 - - - 27.02.05 27.02.05
_ Min-Zeit 06:37 13:28 03:57 - 00:01 - - - 23:48 20:51
Minimum _ -8.0 C 42 % 1003.3 hPa - 0.0 km/h (0 Bft) - - - -15.2 C -13.5 C
Max-Datum _ 24.02.05 21.02.05 27.02.05 27.02.05 23.02.05 - 23.02.05 26.02.05 21.02.05 24.02.05
_ Max-Zeit 15:59 00:25 23:57 09:21 15:29 - 10:02 11:29 00:25 15:59
Maximum _ 3.5 C 99 % 1019.8 hPa 0.6 l/m 25.2 km/h
W-NW (4 Bft)
- 0.05 h 652 W/m -2.5 C 3.5 C
Durchschnitt _ -2.4 C 73 % 1010.6 hPa #4.5 l/m 2.5 km/h (1 Bft) O-SO #16:28 h 175 W/m -6.8 C -3.2 C

Durchschnitt Minimum Temp.-2.8 C
Durchschnitt Maximum Temp.-2.1 C
© Kaiko 2005